Date,TemperatureHighF,TemperatureAvgF,TemperatureLowF,DewpointHighF,DewpointAvgF,DewpointLowF,HumidityHigh,HumidityAvg,HumidityLow,PressureMaxIn,PressureMinIn,WindSpeedMaxMPH,WindSpeedAvgMPH,GustSpeedMaxMPH,PrecipitationSumIn
2013-6-1,77.6,70.1,63.2,69.0,63.1,61.0,95,79,63,29.66,29.59,8,2,0,0.25
2013-6-2,62.9,53.0,43.6,62.0,50.2,42.0,95,90,80,30.00,29.62,2,0,0,0.01
2013-6-3,68.6,54.8,41.3,49.0,42.8,37.0,96,68,32,30.06,29.98,3,0,0,0.00
2013-6-4,70.3,57.5,47.0,52.0,47.4,44.0,93,71,46,30.11,30.04,4,0,0,0.00
2013-6-5,69.6,58.2,52.9,54.0,50.1,47.0,88,75,47,30.05,29.89,4,0,0,0.04
2013-6-6,59.2,54.9,52.5,55.0,51.6,47.0,95,88,76,29.89,29.83,7,0,0,0.21
2013-6-7,65.8,57.3,50.8,53.0,47.8,39.0,87,72,46,29.90,29.85,12,0,0,0.00
2013-6-8,73.2,59.0,45.4,52.0,46.7,42.0,92,67,34,29.95,29.85,3,0,0,0.00
2013-6-9,79.8,66.3,52.9,63.0,56.6,50.0,92,73,55,29.95,29.73,2,0,0,0.00
2013-6-10,75.6,65.7,60.4,67.0,61.6,58.0,96,87,68,29.80,29.68,5,0,0,0.21
2013-6-11,84.3,72.6,58.7,66.0,61.7,56.0,95,71,50,29.85,29.73,3,0,0,0.00
2013-6-12,77.6,68.8,61.2,68.0,62.3,59.0,95,80,64,29.85,29.51,4,0,0,0.13
2013-6-13,68.8,62.4,56.7,62.0,55.0,51.0,96,78,60,30.00,29.58,10,1,0,0.00
2013-6-14,70.9,60.5,53.9,58.0,52.7,50.0,89,76,60,30.08,29.98,7,1,0,0.00
2013-6-15,76.8,65.8,53.6,68.0,61.2,51.0,95,85,68,30.01,29.77,4,0,0,0.16
2013-6-16,85.5,77.2,69.3,68.0,65.0,63.0,82,67,51,29.82,29.77,11,0,0,0.00
2013-6-17,92.3,74.1,58.9,63.0,57.1,52.0,91,62,26,29.88,29.75,7,0,0,0.01
2013-6-18,67.3,59.4,55.6,56.0,52.9,49.0,94,80,63,30.02,29.85,8,1,0,0.00
2013-6-19,75.1,62.9,51.4,57.0,50.0,39.0,95,66,35,30.10,30.00,3,0,0,0.00
2013-6-20,86.1,70.9,54.1,64.0,56.9,50.0,93,64,42,30.09,30.00,5,0,0,0.00
2013-6-21,84.5,73.2,66.1,69.0,65.2,61.0,93,77,58,30.10,29.76,10,0,0,0.39
2013-6-22,81.2,73.8,67.8,72.0,67.7,65.0,95,82,64,30.04,29.86,10,0,0,0.02
2013-6-23,91.6,73.3,67.4,72.0,58.6,-99.9,89,69,51,29.95,29.83,7,-52,0,0.04
2013-6-24,88.2,75.4,68.8,71.0,67.6,65.0,89,78,52,29.97,29.77,7,1,0,0.12
2013-6-25,86.7,72.7,66.8,74.0,68.4,65.0,96,87,65,29.89,29.73,4,0,0,0.00
2013-6-26,77.7,70.5,66.8,71.0,65.3,-99.9,96,86,71,29.78,29.64,5,-10,0,0.00
2013-6-27,93.4,76.6,63.7,73.0,67.3,62.0,96,76,39,29.70,29.59,3,0,0,0.00
2013-6-28,85.5,74.7,66.4,70.0,63.6,59.0,90,70,42,29.61,29.50,5,0,0,0.46
2013-6-29,69.3,64.8,62.9,63.0,60.6,57.0,93,86,73,29.70,29.51,9,1,0,0.06
2013-6-30,78.6,65.8,61.8,65.0,57.8,51.0,89,76,56,29.91,29.70,11,2,0,0.24